createdAt,value
2018-06-22T00:00:40.733Z,11.19
2018-06-22T00:01:48.799Z,11.19
2018-06-22T00:02:56.832Z,11.16
2018-06-22T00:04:04.922Z,11.04
2018-06-22T00:05:12.964Z,11.07
2018-06-22T00:06:21.052Z,10.92
2018-06-22T00:07:29.107Z,11.02
2018-06-22T00:08:37.177Z,10.92
2018-06-22T00:09:45.228Z,10.83
2018-06-22T00:10:53.294Z,10.84
2018-06-22T00:12:01.385Z,10.83
2018-06-22T00:13:09.450Z,10.79
2018-06-22T00:14:17.512Z,10.82
2018-06-22T00:15:25.577Z,10.72
2018-06-22T00:16:33.632Z,10.77
2018-06-22T00:17:41.699Z,10.76
2018-06-22T00:18:49.736Z,10.61
2018-06-22T00:19:57.815Z,10.69
2018-06-22T00:21:05.900Z,10.72
2018-06-22T00:22:13.966Z,10.68
2018-06-22T00:23:22.406Z,10.72
2018-06-22T00:24:30.502Z,10.72
2018-06-22T00:25:38.550Z,10.77
2018-06-22T00:26:46.799Z,10.77
2018-06-22T00:27:56.901Z,10.71
2018-06-22T00:29:04.993Z,10.76
2018-06-22T00:30:13.028Z,10.76
2018-06-22T00:31:21.066Z,10.75
2018-06-22T00:32:30.580Z,10.59
2018-06-22T00:33:37.197Z,10.65
2018-06-22T00:34:45.294Z,10.67
2018-06-22T00:35:53.531Z,10.59
2018-06-22T00:37:01.610Z,10.57
2018-06-22T00:38:09.657Z,10.34
2018-06-22T00:39:17.729Z,10.36
2018-06-22T00:40:25.799Z,10.23
2018-06-22T00:41:33.868Z,10.28
2018-06-22T00:42:41.957Z,10.15
2018-06-22T00:43:49.998Z,10.06
2018-06-22T00:44:58.065Z,10.06
2018-06-22T00:46:06.097Z,9.99
2018-06-22T00:47:14.184Z,9.87
2018-06-22T00:48:22.248Z,9.73
2018-06-22T00:49:30.308Z,9.72
2018-06-22T00:50:38.393Z,9.69
2018-06-22T00:51:46.474Z,9.62
2018-06-22T00:52:54.477Z,9.63
2018-06-22T00:54:02.542Z,9.52
2018-06-22T00:55:10.644Z,9.62
2018-06-22T00:56:18.688Z,9.55
2018-06-22T00:57:26.721Z,9.58
2018-06-22T00:58:34.801Z,9.54
2018-06-22T00:59:42.881Z,9.56
2018-06-22T01:00:50.931Z,9.52
2018-06-22T01:01:59.007Z,9.44
2018-06-22T01:03:07.057Z,9.36
2018-06-22T01:04:15.121Z,9.31
2018-06-22T01:05:23.185Z,9.36
2018-06-22T01:06:31.247Z,9.27
2018-06-22T01:07:39.296Z,9.29
2018-06-22T01:08:47.357Z,9.24
2018-06-22T01:09:55.426Z,9.15
2018-06-22T01:11:03.488Z,9.09
2018-06-22T01:12:11.575Z,9.08
2018-06-22T01:13:19.629Z,8.99
2018-06-22T01:14:27.677Z,8.84
2018-06-22T01:15:35.757Z,8.82
2018-06-22T01:16:43.804Z,8.74
2018-06-22T01:17:51.872Z,8.72
2018-06-22T01:18:59.925Z,8.68
2018-06-22T01:20:07.999Z,8.69
2018-06-22T01:21:16.059Z,8.61
2018-06-22T01:22:24.272Z,8.61
2018-06-22T01:23:32.198Z,8.66
2018-06-22T01:24:40.250Z,8.53
2018-06-22T01:25:48.318Z,8.45
2018-06-22T01:26:56.415Z,8.45
2018-06-22T01:28:04.428Z,8.44
2018-06-22T01:29:12.515Z,8.42
2018-06-22T01:30:20.578Z,8.41
2018-06-22T01:31:28.644Z,8.28
2018-06-22T01:32:36.683Z,8.28
2018-06-22T01:33:44.777Z,8.28
2018-06-22T01:34:52.834Z,8.34
2018-06-22T01:36:00.902Z,8.44
2018-06-22T01:37:08.973Z,8.39
2018-06-22T01:38:17.067Z,8.32
2018-06-22T01:39:25.081Z,8.34
2018-06-22T01:40:33.152Z,8.16
2018-06-22T01:41:41.195Z,8.17
2018-06-22T01:42:49.262Z,8.21
2018-06-22T01:43:57.339Z,8.13
2018-06-22T01:45:05.385Z,8.13
2018-06-22T01:46:13.468Z,8.11
2018-06-22T01:47:21.528Z,8.01
2018-06-22T01:48:29.616Z,8.03
2018-06-22T01:49:37.665Z,7.98
2018-06-22T01:50:45.723Z,7.88
2018-06-22T01:51:53.802Z,7.84
2018-06-22T01:53:01.867Z,7.78
2018-06-22T01:54:09.932Z,7.77
2018-06-22T01:55:17.962Z,7.70
2018-06-22T01:56:26.036Z,7.72
2018-06-22T01:57:34.096Z,7.75
2018-06-22T01:58:42.168Z,7.69
2018-06-22T01:59:50.240Z,7.70
2018-06-22T02:00:58.290Z,7.74
2018-06-22T02:02:06.315Z,7.69
2018-06-22T02:03:14.423Z,7.72
2018-06-22T02:04:22.453Z,7.69
2018-06-22T02:05:30.545Z,7.70
2018-06-22T02:06:38.596Z,7.67
2018-06-22T02:07:46.617Z,7.72
2018-06-22T02:08:54.741Z,7.66
2018-06-22T02:10:02.801Z,7.75
2018-06-22T02:11:10.832Z,7.74
2018-06-22T02:12:18.875Z,7.80
2018-06-22T02:13:26.957Z,7.78
2018-06-22T02:14:35.039Z,7.83
2018-06-22T02:15:43.074Z,7.78
2018-06-22T02:16:51.154Z,7.74
2018-06-22T02:17:59.217Z,7.69
2018-06-22T02:19:07.315Z,7.75
2018-06-22T02:20:15.351Z,7.62
2018-06-22T02:21:23.409Z,7.72
2018-06-22T02:22:31.455Z,7.53
2018-06-22T02:23:39.546Z,7.59
2018-06-22T02:24:47.612Z,7.46
2018-06-22T02:25:55.651Z,7.39
2018-06-22T02:27:03.707Z,7.33
2018-06-22T02:28:11.781Z,7.23
2018-06-22T02:29:19.822Z,7.21
2018-06-22T02:30:27.908Z,7.22
2018-06-22T02:31:35.970Z,7.22
2018-06-22T02:32:44.004Z,7.19
2018-06-22T02:33:52.113Z,7.13
2018-06-22T02:35:00.160Z,7.15
2018-06-22T02:36:08.236Z,7.05
2018-06-22T02:37:16.302Z,7.03
2018-06-22T02:38:24.358Z,7.10
2018-06-22T02:39:32.392Z,7.01
2018-06-22T02:40:40.429Z,6.93
2018-06-22T02:41:48.500Z,6.97
2018-06-22T02:42:56.615Z,6.93
2018-06-22T02:44:04.664Z,6.89
2018-06-22T02:45:12.714Z,6.93
2018-06-22T02:46:20.768Z,7.01
2018-06-22T02:47:28.815Z,6.86
2018-06-22T02:48:36.894Z,6.89
2018-06-22T02:49:44.966Z,6.92
2018-06-22T02:50:53.009Z,6.80
2018-06-22T02:52:01.120Z,6.77
2018-06-22T02:53:09.134Z,6.78
2018-06-22T02:54:17.200Z,6.70
2018-06-22T02:55:25.263Z,6.77
2018-06-22T02:56:33.325Z,6.64
2018-06-22T02:57:41.388Z,6.67
2018-06-22T02:58:49.451Z,6.64
2018-06-22T02:59:57.627Z,6.52
2018-06-22T03:01:05.575Z,6.44
2018-06-22T03:02:13.634Z,6.39
2018-06-22T03:03:21.681Z,6.35
2018-06-22T03:04:29.780Z,6.25
2018-06-22T03:05:37.809Z,6.20
2018-06-22T03:06:45.884Z,6.34
2018-06-22T03:07:53.943Z,6.26
2018-06-22T03:09:02.012Z,6.34
2018-06-22T03:10:10.086Z,6.34
2018-06-22T03:11:18.165Z,6.28
2018-06-22T03:13:43.358Z,6.20
2018-06-22T03:14:51.429Z,6.19
2018-06-22T03:15:59.484Z,6.25
2018-06-22T03:17:07.542Z,6.15
2018-06-22T03:18:15.602Z,6.15
2018-06-22T03:19:23.659Z,6.10
2018-06-22T03:20:31.734Z,6.15
2018-06-22T03:21:39.783Z,6.10
2018-06-22T03:22:47.838Z,6.22
2018-06-22T03:23:55.924Z,6.07
2018-06-22T03:25:03.958Z,6.17
2018-06-22T03:26:12.008Z,6.10
2018-06-22T03:27:20.087Z,6.17
2018-06-22T03:28:28.144Z,6.22
2018-06-22T03:29:36.194Z,6.20
2018-06-22T03:30:44.282Z,6.26
2018-06-22T03:31:52.362Z,6.25
2018-06-22T03:33:00.454Z,6.31
2018-06-22T03:34:08.472Z,6.28
2018-06-22T03:35:16.495Z,6.35
2018-06-22T03:36:24.599Z,6.31
2018-06-22T03:37:32.650Z,6.31
2018-06-22T03:38:40.700Z,6.41
2018-06-22T03:39:48.777Z,6.34
2018-06-22T03:40:56.827Z,6.36
2018-06-22T03:42:04.897Z,6.39
2018-06-22T03:43:12.966Z,6.43
2018-06-22T03:44:21.004Z,6.47
2018-06-22T03:45:29.076Z,6.44
2018-06-22T03:46:37.146Z,6.44
2018-06-22T03:47:45.212Z,6.47
2018-06-22T03:48:53.251Z,6.47
2018-06-22T03:50:01.337Z,6.59
2018-06-22T03:51:09.405Z,6.64
2018-06-22T03:52:17.463Z,6.64
2018-06-22T03:53:25.515Z,6.64
2018-06-22T03:54:33.585Z,6.59
2018-06-22T03:55:41.631Z,6.60
2018-06-22T03:56:49.730Z,6.68
2018-06-22T03:57:57.772Z,6.70
2018-06-22T03:59:05.848Z,6.68
2018-06-22T04:00:13.901Z,6.74
2018-06-22T04:01:21.945Z,6.72
2018-06-22T04:02:29.995Z,6.74
2018-06-22T04:03:38.089Z,6.83
2018-06-22T04:04:46.118Z,6.82
2018-06-22T04:05:54.214Z,6.92
2018-06-22T04:07:02.253Z,6.92
2018-06-22T04:08:10.379Z,6.93
2018-06-22T04:09:18.401Z,6.90
2018-06-22T04:10:26.420Z,7.01
2018-06-22T04:11:34.517Z,7.03
2018-06-22T04:12:42.570Z,7.04
2018-06-22T04:13:50.668Z,7.19
2018-06-22T04:14:58.719Z,7.19
2018-06-22T04:16:06.726Z,7.23
2018-06-22T04:17:14.836Z,7.23
2018-06-22T04:18:22.885Z,7.37
2018-06-22T04:19:30.949Z,7.26
2018-06-22T04:20:39.018Z,7.39
2018-06-22T04:21:47.060Z,7.37
2018-06-22T04:22:55.116Z,7.48
2018-06-22T04:24:03.199Z,7.50
2018-06-22T04:25:11.264Z,7.55
2018-06-22T04:26:19.309Z,7.50
2018-06-22T04:27:27.387Z,7.59
2018-06-22T04:28:35.442Z,7.59
2018-06-22T04:29:43.511Z,7.50
2018-06-22T04:30:51.560Z,7.62
2018-06-22T04:31:59.626Z,7.62
2018-06-22T04:33:07.690Z,7.64
2018-06-22T04:34:15.745Z,7.74
2018-06-22T04:35:23.817Z,7.67
2018-06-22T04:36:31.864Z,7.72
2018-06-22T04:37:39.984Z,7.74
2018-06-22T04:38:48.098Z,7.80
2018-06-22T04:39:56.051Z,7.85
2018-06-22T04:41:04.132Z,7.90
2018-06-22T04:42:12.190Z,7.91
2018-06-22T04:43:20.260Z,7.96
2018-06-22T04:44:28.419Z,8.01
2018-06-22T04:45:36.351Z,8.02
2018-06-22T04:46:44.445Z,8.08
2018-06-22T04:47:52.509Z,8.08
2018-06-22T04:49:00.570Z,8.09
2018-06-22T04:50:08.629Z,8.14
2018-06-22T04:51:16.660Z,8.14
2018-06-22T04:52:24.774Z,8.14
2018-06-22T04:53:32.833Z,8.17
2018-06-22T04:54:40.860Z,8.18
2018-06-22T04:55:49.500Z,8.27
2018-06-22T04:56:56.978Z,8.36
2018-06-22T04:58:05.071Z,8.41
2018-06-22T04:59:13.125Z,8.35
2018-06-22T05:00:21.186Z,8.41
2018-06-22T05:01:29.825Z,8.41
2018-06-22T05:02:37.910Z,8.53
2018-06-22T05:03:45.473Z,8.54
2018-06-22T05:07:10.200Z,8.68
2018-06-22T05:08:17.627Z,8.82
2018-06-22T05:10:34.283Z,9.27
2018-06-22T05:11:41.817Z,9.33
2018-06-22T05:12:49.919Z,9.34
2018-06-22T05:13:57.931Z,9.24
2018-06-22T05:15:06.743Z,9.27
2018-06-22T05:16:14.050Z,9.33
2018-06-22T05:17:22.127Z,9.30
2018-06-22T05:18:30.205Z,9.26
2018-06-22T05:19:38.252Z,9.22
2018-06-22T05:20:46.398Z,9.36
2018-06-22T05:21:54.392Z,9.30
2018-06-22T05:23:02.439Z,9.27
2018-06-22T05:24:10.516Z,9.30
2018-06-22T05:25:18.617Z,9.31
2018-06-22T05:26:26.625Z,9.34
2018-06-22T05:27:34.711Z,9.33
2018-06-22T05:28:42.746Z,9.37
2018-06-22T05:29:50.809Z,9.42
2018-06-22T05:30:58.877Z,9.44
2018-06-22T05:32:06.992Z,9.56
2018-06-22T05:33:15.012Z,9.55
2018-06-22T05:34:23.061Z,9.51
2018-06-22T05:35:31.120Z,9.64
2018-06-22T05:36:39.195Z,9.54
2018-06-22T05:37:47.279Z,9.55
2018-06-22T05:38:55.345Z,9.56
2018-06-22T05:40:03.390Z,9.62
2018-06-22T05:41:11.449Z,9.69
2018-06-22T05:42:19.518Z,9.73
2018-06-22T05:43:27.545Z,9.80
2018-06-22T05:44:35.639Z,9.70
2018-06-22T05:45:43.708Z,9.80
2018-06-22T05:46:51.767Z,9.81
2018-06-22T05:47:59.832Z,9.82
2018-06-22T05:49:07.898Z,9.85
2018-06-22T05:50:15.968Z,9.90
2018-06-22T05:51:24.018Z,9.87
2018-06-22T05:52:32.091Z,9.92
2018-06-22T05:53:40.155Z,9.99
2018-06-22T05:54:48.228Z,9.95
2018-06-22T05:55:56.296Z,10.12
2018-06-22T05:57:04.359Z,10.10
2018-06-22T05:58:12.404Z,10.07
2018-06-22T05:59:20.472Z,10.20
2018-06-22T06:00:28.515Z,10.10
2018-06-22T06:01:36.597Z,10.27
2018-06-22T06:02:44.674Z,10.30
2018-06-22T06:03:52.733Z,10.31
2018-06-22T06:05:00.783Z,10.36
2018-06-22T06:06:08.879Z,10.39
2018-06-22T06:07:16.906Z,10.39
2018-06-22T06:08:24.994Z,10.39
2018-06-22T06:09:33.036Z,10.42
2018-06-22T06:10:41.119Z,10.59
2018-06-22T06:11:49.175Z,10.51
2018-06-22T06:12:57.228Z,10.62
2018-06-22T06:14:05.298Z,10.65
2018-06-22T06:15:13.383Z,10.64
2018-06-22T06:16:21.436Z,10.67
2018-06-22T06:17:29.486Z,10.69
2018-06-22T06:18:37.546Z,10.77
2018-06-22T06:19:45.620Z,10.72
2018-06-22T06:20:53.695Z,10.80
2018-06-22T06:22:01.753Z,10.87
2018-06-22T06:23:09.812Z,10.80
2018-06-22T06:24:17.862Z,10.79
2018-06-22T06:25:25.945Z,10.82
2018-06-22T06:26:34.002Z,10.97
2018-06-22T06:27:42.082Z,11.02
2018-06-22T06:28:50.126Z,10.98
2018-06-22T06:29:58.200Z,10.92
2018-06-22T06:31:06.278Z,11.01
2018-06-22T06:32:14.351Z,11.08
2018-06-22T06:33:22.399Z,11.05
2018-06-22T06:34:30.472Z,11.15
2018-06-22T06:35:38.531Z,11.05
2018-06-22T06:36:46.602Z,11.18
2018-06-22T06:37:54.656Z,11.16
2018-06-22T06:39:02.720Z,11.13
2018-06-22T06:40:10.883Z,11.26
2018-06-22T06:41:18.882Z,11.13
2018-06-22T06:42:26.924Z,11.22
2018-06-22T06:43:34.969Z,11.22
2018-06-22T06:44:43.048Z,11.26
2018-06-22T06:45:51.112Z,11.30
2018-06-22T06:46:59.184Z,11.26
2018-06-22T06:48:07.220Z,11.34
2018-06-22T06:49:15.302Z,11.40
2018-06-22T06:50:23.378Z,11.49
2018-06-22T06:51:31.434Z,11.44
2018-06-22T06:52:39.508Z,11.45
2018-06-22T06:53:47.536Z,11.45
2018-06-22T06:54:55.636Z,11.45
2018-06-22T06:56:03.698Z,11.51
2018-06-22T06:57:11.771Z,11.52
2018-06-22T06:58:19.827Z,11.63
2018-06-22T06:59:27.887Z,11.55
2018-06-22T07:00:35.957Z,11.70
2018-06-22T07:01:44.010Z,11.77
2018-06-22T07:02:52.083Z,11.85
2018-06-22T07:04:00.133Z,12.05
2018-06-22T07:05:08.213Z,12.33
2018-06-22T07:06:16.305Z,12.55
2018-06-22T07:07:24.351Z,12.81
2018-06-22T07:08:32.461Z,13.26
2018-06-22T07:09:40.477Z,13.64
2018-06-22T07:10:48.545Z,14.11
2018-06-22T07:11:56.615Z,14.59
2018-06-22T07:13:04.669Z,15.08
2018-06-22T07:14:12.752Z,15.51
2018-06-22T07:15:20.812Z,16.00
2018-06-22T07:16:28.888Z,16.21
2018-06-22T07:17:36.930Z,16.24
2018-06-22T07:18:45.027Z,16.37
2018-06-22T07:19:53.096Z,16.44
2018-06-22T07:21:01.164Z,16.77
2018-06-22T07:22:09.238Z,16.98
2018-06-22T07:23:17.293Z,16.97
2018-06-22T07:24:25.369Z,17.13
2018-06-22T07:25:33.456Z,17.10
2018-06-22T07:26:41.543Z,17.14
2018-06-22T07:27:49.602Z,17.37
2018-06-22T07:28:57.671Z,17.75
2018-06-22T07:30:05.748Z,18.02
2018-06-22T07:31:13.819Z,18.33
2018-06-22T07:32:21.903Z,18.53
2018-06-22T07:33:30.015Z,18.76
2018-06-22T07:34:38.052Z,19.27
2018-06-22T07:35:46.122Z,19.64
2018-06-22T07:36:54.205Z,20.18
2018-06-22T07:38:02.295Z,20.44
2018-06-22T07:39:10.355Z,20.71
2018-06-22T07:40:18.431Z,21.22
2018-06-22T07:41:26.526Z,21.45
2018-06-22T07:42:34.588Z,21.59
2018-06-22T07:43:42.666Z,21.77
2018-06-22T07:44:50.731Z,21.96
2018-06-22T07:45:58.815Z,22.23
2018-06-22T07:47:06.881Z,22.51
2018-06-22T07:48:14.979Z,22.74
2018-06-22T07:49:23.047Z,22.91
2018-06-22T07:50:31.120Z,23.17
2018-06-22T07:51:39.200Z,23.33
2018-06-22T07:52:47.292Z,23.71
2018-06-22T07:53:55.385Z,24.16
2018-06-22T07:55:03.449Z,24.09
2018-06-22T07:56:11.533Z,23.77
2018-06-22T07:57:19.706Z,23.58
2018-06-22T07:58:27.668Z,23.52
2018-06-22T07:59:35.751Z,23.67
2018-06-22T08:00:43.851Z,23.69
2018-06-22T08:01:51.919Z,23.85
2018-06-22T08:03:00.002Z,24.25
2018-06-22T08:04:08.092Z,24.55
2018-06-22T08:05:16.176Z,24.78
2018-06-22T08:06:24.262Z,25.14
2018-06-22T08:07:32.326Z,25.37
2018-06-22T08:08:40.415Z,25.37
2018-06-22T08:09:48.513Z,25.14
2018-06-22T08:10:56.572Z,24.94
2018-06-22T08:12:04.677Z,24.86
2018-06-22T08:13:12.741Z,24.89
2018-06-22T08:14:20.829Z,24.61
2018-06-22T08:15:28.907Z,24.86
2018-06-22T08:16:36.989Z,24.84
2018-06-22T08:17:45.139Z,24.89
2018-06-22T08:18:53.161Z,24.69
2018-06-22T08:20:01.234Z,24.74
2018-06-22T08:21:09.304Z,24.50
2018-06-22T08:22:17.385Z,24.34
2018-06-22T08:23:25.538Z,24.66
2018-06-22T08:24:33.557Z,25.00
2018-06-22T08:25:41.648Z,25.00
2018-06-22T08:26:49.734Z,25.19
2018-06-22T08:27:57.811Z,25.12
2018-06-22T08:29:05.884Z,25.19
2018-06-22T08:30:13.973Z,24.97
2018-06-22T08:31:22.064Z,24.97
2018-06-22T08:32:30.127Z,24.86
2018-06-22T08:33:38.217Z,24.88
2018-06-22T08:34:46.318Z,25.06
2018-06-22T08:35:54.391Z,25.09
2018-06-22T08:37:02.463Z,24.92
2018-06-22T08:38:10.549Z,24.96
2018-06-22T08:39:18.636Z,24.85
2018-06-22T08:40:26.718Z,24.71
2018-06-22T08:41:34.845Z,24.92
2018-06-22T08:42:42.885Z,24.92
2018-06-22T08:43:50.965Z,24.58
2018-06-22T08:44:59.046Z,24.32
2018-06-22T08:46:07.099Z,24.69
2018-06-22T08:47:15.215Z,24.13
2018-06-22T08:48:23.304Z,23.88
2018-06-22T08:49:31.371Z,24.03
2018-06-22T08:50:39.475Z,23.89
2018-06-22T08:51:47.508Z,24.22
2018-06-22T08:52:55.642Z,24.32
2018-06-22T08:54:03.710Z,24.25
2018-06-22T08:55:11.811Z,24.26
2018-06-22T08:56:19.862Z,24.62
2018-06-22T08:57:27.958Z,24.58
2018-06-22T08:58:36.042Z,24.56
2018-06-22T08:59:44.127Z,24.58
2018-06-22T09:00:52.217Z,24.59
2018-06-22T09:02:00.292Z,24.31
2018-06-22T09:03:08.358Z,24.09
2018-06-22T09:04:16.456Z,23.84
2018-06-22T09:05:24.533Z,23.81
2018-06-22T09:06:32.613Z,23.91
2018-06-22T09:07:40.722Z,23.84
2018-06-22T09:08:48.790Z,23.94
2018-06-22T09:09:56.856Z,24.24
2018-06-22T09:11:04.955Z,24.37
2018-06-22T09:12:13.034Z,24.37
2018-06-22T09:13:21.128Z,24.11
2018-06-22T09:14:29.259Z,24.21
2018-06-22T09:15:37.300Z,24.38
2018-06-22T09:16:45.373Z,24.11
2018-06-22T09:17:53.455Z,24.16
2018-06-22T09:19:01.546Z,24.29
2018-06-22T09:20:09.618Z,24.56
2018-06-22T09:21:17.702Z,24.46
2018-06-22T09:22:25.792Z,24.37
2018-06-22T09:23:33.869Z,23.66
2018-06-22T09:24:41.948Z,23.28
2018-06-22T09:25:50.028Z,23.29
2018-06-22T09:26:58.147Z,22.92
2018-06-22T09:28:06.203Z,22.86
2018-06-22T09:29:14.285Z,22.67
2018-06-22T09:30:22.352Z,22.62
2018-06-22T09:31:30.446Z,22.30
2018-06-22T09:32:38.516Z,22.01
2018-06-22T09:33:46.666Z,21.81
2018-06-22T09:34:54.671Z,21.62
2018-06-22T09:36:02.743Z,21.19
2018-06-22T09:37:10.827Z,20.93
2018-06-22T09:38:18.904Z,20.46
2018-06-22T09:39:26.963Z,20.22
2018-06-22T09:40:35.074Z,20.12
2018-06-22T09:41:43.166Z,19.84
2018-06-22T09:42:51.245Z,19.66
2018-06-22T09:43:59.327Z,19.55
2018-06-22T09:45:07.370Z,19.60
2018-06-22T09:46:15.450Z,19.66
2018-06-22T09:47:23.533Z,19.67
2018-06-22T09:48:31.676Z,19.63
2018-06-22T09:49:39.683Z,19.75
2018-06-22T09:50:47.738Z,19.66
2018-06-22T09:51:55.838Z,19.66
2018-06-22T09:53:03.903Z,19.57
2018-06-22T09:54:11.993Z,19.45
2018-06-22T09:55:20.054Z,19.49
2018-06-22T09:56:28.131Z,19.52
2018-06-22T09:57:36.195Z,19.72
2018-06-22T09:58:44.271Z,19.70
2018-06-22T09:59:52.346Z,19.71
2018-06-22T10:01:00.412Z,19.71
2018-06-22T10:02:08.503Z,19.71
2018-06-22T10:03:16.593Z,19.64
2018-06-22T10:04:24.644Z,19.63
2018-06-22T10:05:32.719Z,19.57
2018-06-22T10:06:40.803Z,19.45
2018-06-22T10:07:48.849Z,19.55
2018-06-22T10:08:56.909Z,19.49
2018-06-22T10:10:04.988Z,19.47
2018-06-22T10:11:13.066Z,19.37
2018-06-22T10:12:21.144Z,19.35
2018-06-22T10:13:29.214Z,19.38
2018-06-22T10:14:37.272Z,19.47
2018-06-22T10:15:45.351Z,19.49
2018-06-22T10:16:53.425Z,19.47
2018-06-22T10:18:01.529Z,19.62
2018-06-22T10:19:09.584Z,19.71
2018-06-22T10:20:17.674Z,19.62
2018-06-22T10:21:25.716Z,19.67
2018-06-22T10:22:33.789Z,19.74
2018-06-22T10:23:41.884Z,19.70
2018-06-22T10:24:49.933Z,19.75
2018-06-22T10:25:57.995Z,19.77
2018-06-22T10:27:06.112Z,19.75
2018-06-22T10:28:14.148Z,19.60
2018-06-22T10:29:22.214Z,19.48
2018-06-22T10:30:30.281Z,19.41
2018-06-22T10:31:38.362Z,19.30
2018-06-22T10:32:46.436Z,19.30
2018-06-22T10:33:54.606Z,19.41
2018-06-22T10:35:02.571Z,19.27
2018-06-22T10:36:10.659Z,19.38
2018-06-22T10:37:18.745Z,19.41
2018-06-22T10:38:26.785Z,19.59
2018-06-22T10:39:34.873Z,19.70
2018-06-22T10:40:42.927Z,19.64
2018-06-22T10:41:51.012Z,19.74
2018-06-22T10:42:59.075Z,19.75
2018-06-22T10:44:07.113Z,19.82
2018-06-22T10:45:15.218Z,19.82
2018-06-22T10:46:23.279Z,19.82
2018-06-22T10:47:31.358Z,19.70
2018-06-22T10:48:39.422Z,19.63
2018-06-22T10:49:47.521Z,19.67
2018-06-22T10:50:55.564Z,19.74
2018-06-22T10:52:03.641Z,19.57
2018-06-22T10:53:11.706Z,19.59
2018-06-22T10:54:19.788Z,19.48
2018-06-22T10:55:27.845Z,19.47
2018-06-22T10:56:35.926Z,19.48
2018-06-22T10:57:43.982Z,19.60
2018-06-22T10:58:52.053Z,19.57
2018-06-22T11:00:00.225Z,19.64
2018-06-22T11:01:08.202Z,19.67
2018-06-22T11:02:16.278Z,19.74
2018-06-22T11:03:24.347Z,19.84
2018-06-22T11:04:32.403Z,19.85
2018-06-22T11:05:40.500Z,19.72
2018-06-22T11:06:48.568Z,19.66
2018-06-22T11:07:56.636Z,19.75
2018-06-22T11:09:04.691Z,19.71
2018-06-22T11:10:12.780Z,19.92
2018-06-22T11:11:20.828Z,19.89
2018-06-22T11:12:28.902Z,19.90
2018-06-22T11:13:36.955Z,19.93
2018-06-22T11:14:45.059Z,20.04
2018-06-22T11:15:53.111Z,20.00
2018-06-22T11:17:01.291Z,20.00
2018-06-22T11:18:09.263Z,20.15
2018-06-22T11:19:17.318Z,20.04
2018-06-22T11:20:25.417Z,20.02
2018-06-22T11:21:33.469Z,20.04
2018-06-22T11:22:41.537Z,20.07
2018-06-22T11:23:49.611Z,20.14
2018-06-22T11:24:57.670Z,20.24
2018-06-22T11:26:05.770Z,20.26
2018-06-22T11:27:13.856Z,20.39
2018-06-22T11:28:21.904Z,20.36
2018-06-22T11:29:29.973Z,20.34
2018-06-22T11:30:38.070Z,20.52
2018-06-22T11:31:46.113Z,20.56
2018-06-22T11:32:54.174Z,20.53
2018-06-22T11:34:02.257Z,20.59
2018-06-22T11:35:10.320Z,20.67
2018-06-22T11:36:18.464Z,20.71
2018-06-22T11:37:26.471Z,20.74
2018-06-22T11:38:34.526Z,20.70
2018-06-22T11:39:42.607Z,20.64
2018-06-22T11:40:50.697Z,20.59
2018-06-22T11:41:58.791Z,20.50
2018-06-22T11:43:06.808Z,20.33
2018-06-22T11:44:14.907Z,20.30
2018-06-22T11:45:22.965Z,20.37
2018-06-22T11:46:31.030Z,20.49
2018-06-22T11:47:39.136Z,20.46
2018-06-22T11:48:47.135Z,20.46
2018-06-22T11:49:55.249Z,20.53
2018-06-22T11:51:03.336Z,20.52
2018-06-22T11:52:11.392Z,20.29
2018-06-22T11:53:19.469Z,20.24
2018-06-22T11:54:27.508Z,20.04
2018-06-22T11:55:35.593Z,20.12
2018-06-22T11:56:43.676Z,19.93
2018-06-22T11:57:51.740Z,19.67
2018-06-22T11:58:59.801Z,19.70
2018-06-22T12:00:07.877Z,19.72
2018-06-22T12:01:15.986Z,19.87
2018-06-22T12:02:24.034Z,19.93
2018-06-22T12:03:32.099Z,19.93
2018-06-22T12:04:40.192Z,19.97
2018-06-22T12:05:48.244Z,20.14
2018-06-22T12:06:56.313Z,20.26
2018-06-22T12:08:04.374Z,20.22
2018-06-22T12:09:12.459Z,20.21
2018-06-22T12:10:20.534Z,20.27
2018-06-22T12:11:28.657Z,20.26
2018-06-22T12:12:36.668Z,20.29
2018-06-22T12:13:44.735Z,20.34
2018-06-22T12:14:52.805Z,20.39
2018-06-22T12:16:00.881Z,20.36
2018-06-22T12:17:08.954Z,20.52
2018-06-22T12:18:16.989Z,20.44
2018-06-22T12:19:25.197Z,20.52
2018-06-22T12:20:33.165Z,20.55
2018-06-22T12:21:41.228Z,20.53
2018-06-22T12:22:49.309Z,20.59
2018-06-22T12:23:57.401Z,20.63
2018-06-22T12:25:05.441Z,20.59
2018-06-22T12:26:13.512Z,20.59
2018-06-22T12:27:21.573Z,20.59
2018-06-22T12:28:29.644Z,20.71
2018-06-22T12:29:37.726Z,20.67
2018-06-22T12:30:45.807Z,20.78
2018-06-22T12:31:53.877Z,20.85
2018-06-22T12:33:01.936Z,20.92
2018-06-22T12:34:10.023Z,20.92
2018-06-22T12:35:18.142Z,21.04
2018-06-22T12:36:26.166Z,21.13
2018-06-22T12:37:34.224Z,20.74
2018-06-22T12:38:42.300Z,20.49
2018-06-22T12:39:50.352Z,20.42
2018-06-22T12:40:58.429Z,20.46
2018-06-22T12:42:06.491Z,20.50
2018-06-22T12:43:14.577Z,20.48
2018-06-22T12:44:22.639Z,20.70
2018-06-22T12:45:30.719Z,20.90
2018-06-22T12:46:38.788Z,20.98
2018-06-22T12:47:46.842Z,20.96
2018-06-22T12:48:54.955Z,20.85
2018-06-22T12:50:03.001Z,20.58
2018-06-22T12:51:11.080Z,20.37
2018-06-22T12:52:19.157Z,20.46
2018-06-22T12:53:27.208Z,20.56
2018-06-22T12:54:35.289Z,20.75
2018-06-22T12:55:43.375Z,20.93
2018-06-22T12:56:51.442Z,20.92
2018-06-22T12:57:59.514Z,20.89
2018-06-22T12:59:07.550Z,21.00
2018-06-22T13:00:15.643Z,20.93
2018-06-22T13:01:23.709Z,21.11
2018-06-22T13:02:31.811Z,21.03
2018-06-22T13:03:39.864Z,20.86
2018-06-22T13:04:47.907Z,20.75
2018-06-22T13:05:56.005Z,20.49
2018-06-22T13:07:04.075Z,20.40
2018-06-22T13:08:12.173Z,20.29
2018-06-22T13:09:20.221Z,20.00
2018-06-22T13:10:28.289Z,19.84
2018-06-22T13:11:36.356Z,19.67
2018-06-22T13:12:44.427Z,19.67
2018-06-22T13:13:52.494Z,19.64
2018-06-22T13:15:00.576Z,19.75
2018-06-22T13:16:08.649Z,19.71
2018-06-22T13:17:16.695Z,19.71
2018-06-22T13:18:24.792Z,19.67
2018-06-22T13:19:32.848Z,19.74
2018-06-22T13:20:40.931Z,19.56
2018-06-22T13:21:49.011Z,19.66
2018-06-22T13:22:57.071Z,19.84
2018-06-22T13:24:05.134Z,20.07
2018-06-22T13:25:13.222Z,20.27
2018-06-22T13:26:21.292Z,20.44
2018-06-22T13:27:29.390Z,20.68
2018-06-22T13:28:37.414Z,20.88
2018-06-22T13:29:45.513Z,21.01
2018-06-22T13:30:53.610Z,21.17
2018-06-22T13:32:01.663Z,21.28
2018-06-22T13:33:09.752Z,21.44
2018-06-22T13:34:17.791Z,21.68
2018-06-22T13:35:25.863Z,21.78
2018-06-22T13:36:33.917Z,21.72
2018-06-22T13:37:42.029Z,21.54
2018-06-22T13:38:50.083Z,21.60
2018-06-22T13:39:58.153Z,21.41
2018-06-22T13:41:06.224Z,21.32
2018-06-22T13:42:14.302Z,21.32
2018-06-22T13:43:22.375Z,21.25
2018-06-22T13:44:30.440Z,21.07
2018-06-22T13:45:38.530Z,20.86
2018-06-22T13:46:46.590Z,20.70
2018-06-22T13:47:54.676Z,20.59
2018-06-22T13:49:02.744Z,20.63
2018-06-22T13:50:10.841Z,20.73
2018-06-22T13:51:18.863Z,20.73
2018-06-22T13:52:26.909Z,20.70
2018-06-22T13:53:34.998Z,20.73
2018-06-22T13:54:43.089Z,20.70
2018-06-22T13:55:51.205Z,20.60
2018-06-22T13:56:59.246Z,20.68
2018-06-22T13:58:07.263Z,20.55
2018-06-22T13:59:15.381Z,20.68
2018-06-22T14:00:23.438Z,20.86
2018-06-22T14:01:31.509Z,21.04
2018-06-22T14:02:39.571Z,20.96
2018-06-22T14:03:47.656Z,21.04
2018-06-22T14:04:55.728Z,21.01
2018-06-22T14:06:03.790Z,21.29
2018-06-22T14:07:11.863Z,21.22
2018-06-22T14:08:19.938Z,21.45
2018-06-22T14:09:28.000Z,21.62
2018-06-22T14:10:36.087Z,21.75
2018-06-22T14:11:44.155Z,21.74
2018-06-22T14:12:52.241Z,21.74
2018-06-22T14:14:00.293Z,21.66
2018-06-22T14:15:08.377Z,21.66
2018-06-22T14:16:16.448Z,21.65
2018-06-22T14:17:24.516Z,21.63
2018-06-22T14:18:32.574Z,21.68
2018-06-22T14:19:40.691Z,21.70
2018-06-22T14:20:48.742Z,21.69
2018-06-22T14:21:56.789Z,21.60
2018-06-22T14:23:04.885Z,21.53
2018-06-22T14:24:12.954Z,21.59
2018-06-22T14:25:21.030Z,21.62
2018-06-22T14:26:29.091Z,21.81
2018-06-22T14:27:37.136Z,22.01
2018-06-22T14:28:45.243Z,21.96
2018-06-22T14:29:53.296Z,22.07
2018-06-22T14:31:01.475Z,22.21
2018-06-22T14:32:09.447Z,22.00
2018-06-22T14:33:17.489Z,21.56
2018-06-22T14:34:25.598Z,21.53
2018-06-22T14:35:33.666Z,21.03
2018-06-22T14:36:41.821Z,20.77
2018-06-22T14:37:49.817Z,20.66
2018-06-22T14:38:57.871Z,20.49
2018-06-22T14:40:05.957Z,20.27
2018-06-22T14:41:14.035Z,20.14
2018-06-22T14:42:22.097Z,19.94
2018-06-22T14:43:30.273Z,19.92
2018-06-22T14:44:38.246Z,19.75
2018-06-22T14:45:46.318Z,19.74
2018-06-22T14:46:54.398Z,19.84
2018-06-22T14:48:02.459Z,19.93
2018-06-22T14:49:10.531Z,19.85
2018-06-22T14:50:18.616Z,19.94
2018-06-22T14:51:26.672Z,19.94